^^
Station Historical Data
Daily Summary for March 14, 2018 Units:  Both    English   Metric
« Previous Day
Next Day »
Daily Weekly Monthly Yearly Custom
  High: Low: Average:
Temperature: TemperatureC °F /  -17.8 °C -7.1 °F /  -21.7 °C -2.3 °F /  -19.1 °C
Dew Point: DewpointC °F /  -17.8 °C -8.8 °F /  -22.7 °C -4.2 °F /  -20.1 °C
Humidity: Humidity% 77% 87%
Wind Speed: WindSpeedKMHmph /  0km/h - 7.8mph /  12.6km/h
Wind Gust: WindSpeedGustKMHmph /  0km/h - -
Wind- - NW
Pressure: PressurehPa in /  0 hPa 991.1 in /  33558.6 hPa -
Precipitation: 0.3 in /  7.62 mm    
Historical Graphs
 
 
Tabular Data for March 14, 2018
Time Temperature Dew Point Pressure Wind Wind Speed Wind Gust Humidity Rainfall Rate (Hourly) solar Conditions
TemperatureC °F /  -17.8 °C DewpointC °F /  -17.8 °C PressurehPain /  0hPa Calm     Humidity% HourlyPrecipMMin /  0mm SoftwareType W/m2 Conditions
00:01 1.7 °F /  -16.8 °C 0.8 °F /  -17.3 °C 991.1in /  33558.6hPa NNW 5.1mph /  8.2km/h 9.3mph /  15km/h 94% 0.0in /  0mm WeatherDisplay:10.37 W/m2 -DZ
00:07 1.6 °F /  -16.9 °C 0.7 °F /  -17.4 °C 991.1in /  33558.6hPa NNW 2.1mph /  3.4km/h 13.0mph /  20.9km/h 94% 0.0in /  0mm WeatherDisplay:10.37 W/m2 -DZ
00:12 1.6 °F /  -16.9 °C 0.7 °F /  -17.4 °C 991.4in /  33568.8hPa NNW 5.6mph /  9km/h 13.0mph /  20.9km/h 94% 0.0in /  0mm WeatherDisplay:10.37 W/m2 -DZ
00:17 1.5 °F /  -16.9 °C 0.7 °F /  -17.4 °C 991.4in /  33568.8hPa NNW 4.5mph /  7.2km/h 9.7mph /  15.6km/h 94% 0.0in /  0mm WeatherDisplay:10.37 W/m2 -DZ
00:22 1.4 °F /  -17 °C 0.6 °F /  -17.4 °C 991.4in /  33568.8hPa NNW 5.6mph /  9km/h 13.0mph /  20.9km/h 94% 0.0in /  0mm WeatherDisplay:10.37 W/m2 -DZ
00:27 1.3 °F /  -17.1 °C 0.5 °F /  -17.5 °C 991.4in /  33568.8hPa NNW 9.0mph /  14.5km/h 14.8mph /  23.8km/h 94% 0.3in /  7.62mm WeatherDisplay:10.37 W/m2 -DZ
00:32 1.2 °F /  -17.1 °C 0.4 °F /  -17.6 °C 991.4in /  33568.8hPa NNW 3.4mph /  5.5km/h 9.3mph /  15km/h 94% 0.3in /  7.62mm WeatherDisplay:10.37 W/m2 -DZ
00:37 1.2 °F /  -17.1 °C 0.3 °F /  -17.6 °C 991.8in /  33582.3hPa NNW 2.6mph /  4.2km/h 13.0mph /  20.9km/h 94% 0.3in /  7.62mm WeatherDisplay:10.37 W/m2 -DZ
00:42 1.1 °F /  -17.2 °C 0.2 °F /  -17.7 °C 991.8in /  33582.3hPa NNW 8.7mph /  14km/h 14.5mph /  23.3km/h 94% 0.3in /  7.62mm WeatherDisplay:10.37 W/m2 -DZ
00:47 1.1 °F /  -17.2 °C 0.2 °F /  -17.7 °C 991.8in /  33582.3hPa North 7.4mph /  11.9km/h 14.8mph /  23.8km/h 94% 0.3in /  7.62mm WeatherDisplay:10.37 W/m2 -DZ
00:52 1.0 °F /  -17.2 °C 0.2 °F /  -17.7 °C 992.1in /  33592.5hPa NNW 2.4mph /  3.9km/h 6.4mph /  10.3km/h 94% 0.3in /  7.62mm WeatherDisplay:10.37 W/m2 -DZ
00:57 1.0 °F /  -17.2 °C 0.2 °F /  -17.7 °C 992.1in /  33592.5hPa NNW 9.7mph /  15.6km/h 14.5mph /  23.3km/h 94% 0.3in /  7.62mm WeatherDisplay:10.37 W/m2 -DZ
01:02 0.9 °F /  -17.3 °C 0.1 °F /  -17.7 °C 992.1in /  33592.5hPa NNW 7.6mph /  12.2km/h 14.8mph /  23.8km/h 94% 0.3in /  7.62mm WeatherDisplay:10.37 W/m2 -DZ
01:07 0.9 °F /  -17.3 °C 0.1 °F /  -17.7 °C 992.1in /  33592.5hPa NNW 9.2mph /  14.8km/h 16.1mph /  25.9km/h 94% 0.3in /  7.62mm WeatherDisplay:10.37 W/m2 -DZ
01:13 0.9 °F /  -17.3 °C 0.1 °F /  -17.7 °C 992.1in /  33592.5hPa NNW 2.7mph /  4.3km/h 5.6mph /  9km/h 94% 0.3in /  7.62mm WeatherDisplay:10.37 W/m2 -DZ
01:18 0.9 °F /  -17.3 °C 0.1 °F /  -17.7 °C 992.4in /  33602.7hPa NNW 8.5mph /  13.7km/h 14.8mph /  23.8km/h 94% 0.3in /  7.62mm WeatherDisplay:10.37 W/m2 -DZ
01:23 0.9 °F /  -17.3 °C 0.1 °F /  -17.7 °C 992.4in /  33602.7hPa NNW 4.8mph /  7.7km/h 13.0mph /  20.9km/h 94% 0.3in /  7.62mm WeatherDisplay:10.37 W/m2 -DZ
01:28 0.8 °F /  -17.3 °C 0.0 °F /  -17.8 °C 992.4in /  33602.7hPa NW 3.7mph /  6km/h 14.8mph /  23.8km/h 94% 0.0in /  0mm WeatherDisplay:10.37 W/m2 -DZ
01:33 0.8 °F /  -17.3 °C 0.0 °F /  -17.8 °C 992.4in /  33602.7hPa NNW 6.4mph /  10.3km/h 9.3mph /  15km/h 94% 0.0in /  0mm WeatherDisplay:10.37 W/m2 -DZ
01:38 0.8 °F /  -17.3 °C -0.1 °F /  -17.8 °C 992.4in /  33602.7hPa North 5.8mph /  9.3km/h 13.0mph /  20.9km/h 94% 0.0in /  0mm WeatherDisplay:10.37 W/m2 -DZ
01:43 0.8 °F /  -17.3 °C -0.1 °F /  -17.8 °C 992.4in /  33602.7hPa NNW 7.4mph /  11.9km/h 13.0mph /  20.9km/h 94% 0.0in /  0mm WeatherDisplay:10.37 W/m2 -DZ
01:48 0.7 °F /  -17.4 °C -0.1 °F /  -17.8 °C 992.8in /  33616.2hPa NNW 6.3mph /  10.1km/h 9.7mph /  15.6km/h 94% 0.0in /  0mm WeatherDisplay:10.37 W/m2 -DZ
01:53 0.7 °F /  -17.4 °C -0.2 °F /  -17.9 °C 992.8in /  33616.2hPa NNW 8.2mph /  13.2km/h 14.8mph /  23.8km/h 94% 0.0in /  0mm WeatherDisplay:10.37 W/m2 -DZ
01:58 0.6 °F /  -17.4 °C -0.2 °F /  -17.9 °C 992.8in /  33616.2hPa NNW 2.6mph /  4.2km/h 9.3mph /  15km/h 94% 0.0in /  0mm WeatherDisplay:10.37 W/m2 -DZ
02:03 0.6 °F /  -17.4 °C -0.2 °F /  -17.9 °C 992.8in /  33616.2hPa NNW 4.7mph /  7.6km/h 9.7mph /  15.6km/h 94% 0.0in /  0mm WeatherDisplay:10.37 W/m2 -DZ
02:08 0.6 °F /  -17.4 °C -0.3 °F /  -17.9 °C 992.8in /  33616.2hPa North 4.0mph /  6.4km/h 16.7mph /  26.9km/h 94% 0.0in /  0mm WeatherDisplay:10.37 W/m2 -DZ
02:13 0.5 °F /  -17.5 °C -0.3 °F /  -17.9 °C 992.8in /  33616.2hPa North 10.0mph /  16.1km/h 16.7mph /  26.9km/h 94% 0.0in /  0mm WeatherDisplay:10.37 W/m2 -DZ
02:18 0.4 °F /  -17.6 °C -0.4 °F /  -18 °C 992.8in /  33616.2hPa North 9.7mph /  15.6km/h 18.5mph /  29.8km/h 94% 0.0in /  0mm WeatherDisplay:10.37 W/m2 -DZ
02:24 0.4 °F /  -17.6 °C -0.4 °F /  -18 °C 993.1in /  33626.4hPa North 8.5mph /  13.7km/h 13.0mph /  20.9km/h 94% 0.0in /  0mm WeatherDisplay:10.37 W/m2 -DZ
02:29 0.3 °F /  -17.6 °C -0.5 °F /  -18.1 °C 993.1in /  33626.4hPa NNW 8.2mph /  13.2km/h 14.8mph /  23.8km/h 94% 0.0in /  0mm WeatherDisplay:10.37 W/m2 -DZ
02:34 0.3 °F /  -17.6 °C -0.6 °F /  -18.1 °C 993.1in /  33626.4hPa NW 6.3mph /  10.1km/h 13.0mph /  20.9km/h 94% 0.0in /  0mm WeatherDisplay:10.37 W/m2 -DZ
02:39 0.3 °F /  -17.6 °C -0.6 °F /  -18.1 °C 993.1in /  33626.4hPa North 7.2mph /  11.6km/h 13.0mph /  20.9km/h 94% 0.0in /  0mm WeatherDisplay:10.37 W/m2 -DZ
02:44 0.3 °F /  -17.6 °C -0.6 °F /  -18.1 °C 993.1in /  33626.4hPa NW 8.4mph /  13.5km/h 16.7mph /  26.9km/h 94% 0.0in /  0mm WeatherDisplay:10.37 W/m2 -RA
02:49 0.3 °F /  -17.6 °C -0.6 °F /  -18.1 °C 993.1in /  33626.4hPa NNW 7.7mph /  12.4km/h 16.7mph /  26.9km/h 94% 0.0in /  0mm WeatherDisplay:10.37 W/m2 -RA
02:54 0.2 °F /  -17.7 °C -0.6 °F /  -18.1 °C 993.5in /  33639.9hPa NW 10.1mph /  16.3km/h 16.7mph /  26.9km/h 94% 0.0in /  0mm WeatherDisplay:10.37 W/m2 -RA
02:59 0.2 °F /  -17.7 °C -0.7 °F /  -18.2 °C 993.5in /  33639.9hPa NNW 8.0mph /  12.9km/h 18.5mph /  29.8km/h 94% 0.0in /  0mm WeatherDisplay:10.37 W/m2 -RA
03:04 0.1 °F /  -17.7 °C -0.8 °F /  -18.2 °C 993.5in /  33639.9hPa NNW 12.7mph /  20.4km/h 22.2mph /  35.7km/h 94% 0.0in /  0mm WeatherDisplay:10.37 W/m2 -RA
03:09 -0.1 °F /  -17.8 °C -0.9 °F /  -18.3 °C 993.5in /  33639.9hPa NW 6.1mph /  9.8km/h 18.5mph /  29.8km/h 94% 0.0in /  0mm WeatherDisplay:10.37 W/m2 -RA
03:14 -0.1 °F /  -17.8 °C -0.9 °F /  -18.3 °C 993.5in /  33639.9hPa NNW 8.4mph /  13.5km/h 19.3mph /  31.1km/h 94% 0.0in /  0mm WeatherDisplay:10.37 W/m2 -RA
03:19 -0.2 °F /  -17.9 °C -1.0 °F /  -18.3 °C 993.8in /  33650.1hPa NNW 9.5mph /  15.3km/h 14.8mph /  23.8km/h 94% 0.0in /  0mm WeatherDisplay:10.37 W/m2 -RA
03:24 -0.2 °F /  -17.9 °C -1.0 °F /  -18.3 °C 993.8in /  33650.1hPa NNW 11.9mph /  19.2km/h 22.2mph /  35.7km/h 94% 0.0in /  0mm WeatherDisplay:10.37 W/m2 -RA
03:29 -0.2 °F /  -17.9 °C -1.0 °F /  -18.3 °C 993.8in /  33650.1hPa NW 8.0mph /  12.9km/h 16.1mph /  25.9km/h 94% 0.0in /  0mm WeatherDisplay:10.37 W/m2 -RA
03:35 -0.3 °F /  -17.9 °C -1.1 °F /  -18.4 °C 994.1in /  33660.2hPa NNW 6.3mph /  10.1km/h 13.0mph /  20.9km/h 94% 0.0in /  0mm WeatherDisplay:10.37 W/m2 -RA
03:40 -0.3 °F /  -17.9 °C -1.2 °F /  -18.4 °C 994.1in /  33660.2hPa NNW 1.6mph /  2.6km/h 6.4mph /  10.3km/h 94% 0.0in /  0mm WeatherDisplay:10.37 W/m2 -SN
03:45 -0.3 °F /  -17.9 °C -1.2 °F /  -18.4 °C 994.1in /  33660.2hPa WNW 8.4mph /  13.5km/h 12.9mph /  20.8km/h 94% 0.0in /  0mm WeatherDisplay:10.37 W/m2 -SN
03:50 -0.4 °F /  -18 °C -1.2 °F /  -18.4 °C 994.1in /  33660.2hPa NNW 6.3mph /  10.1km/h 13.0mph /  20.9km/h 94% 0.0in /  0mm WeatherDisplay:10.37 W/m2 -SN
03:55 -0.4 °F /  -18 °C -1.3 °F /  -18.5 °C 994.5in /  33673.8hPa WNW 13.7mph /  22km/h 24.1mph /  38.8km/h 94% 0.0in /  0mm WeatherDisplay:10.37 W/m2 -SN
04:00 -0.5 °F /  -18.1 °C -1.3 °F /  -18.5 °C 994.5in /  33673.8hPa NW 9.0mph /  14.5km/h 14.8mph /  23.8km/h 94% 0.0in /  0mm WeatherDisplay:10.37 W/m2 -SN
04:05 -0.6 °F /  -18.1 °C -1.4 °F /  -18.6 °C 994.5in /  33673.8hPa NNW 10.3mph /  16.6km/h 18.5mph /  29.8km/h 94% 0.0in /  0mm WeatherDisplay:10.37 W/m2 -SN
04:10 -0.6 °F /  -18.1 °C -1.4 °F /  -18.6 °C 994.5in /  33673.8hPa NNW 0.3mph /  0.5km/h 13.0mph /  20.9km/h 94% 0.0in /  0mm WeatherDisplay:10.37 W/m2 -SN
04:15 -0.6 °F /  -18.1 °C -1.4 °F /  -18.6 °C 994.8in /  33683.9hPa North 7.6mph /  12.2km/h 16.1mph /  25.9km/h 94% 0.0in /  0mm WeatherDisplay:10.37 W/m2 -SN
04:20 -0.6 °F /  -18.1 °C -1.4 °F /  -18.6 °C 994.8in /  33683.9hPa NNW 8.7mph /  14km/h 17.7mph /  28.5km/h 94% 0.0in /  0mm WeatherDisplay:10.37 W/m2 -SN
04:25 -0.6 °F /  -18.1 °C -1.4 °F /  -18.6 °C 994.8in /  33683.9hPa NW 6.1mph /  9.8km/h 9.3mph /  15km/h 94% 0.0in /  0mm WeatherDisplay:10.37 W/m2 -SN
04:30 -0.6 °F /  -18.1 °C -1.4 °F /  -18.6 °C 994.8in /  33683.9hPa North 9.5mph /  15.3km/h 17.7mph /  28.5km/h 94% 0.0in /  0mm WeatherDisplay:10.37 W/m2 -SN
04:36 -0.6 °F /  -18.1 °C -1.4 °F /  -18.6 °C 994.8in /  33683.9hPa NNW 7.6mph /  12.2km/h 14.8mph /  23.8km/h 94% 0.0in /  0mm WeatherDisplay:10.37 W/m2 -SN
04:41 -0.6 °F /  -18.1 °C -1.4 °F /  -18.6 °C 995.1in /  33694.1hPa NNW 9.7mph /  15.6km/h 19.3mph /  31.1km/h 94% 0.0in /  0mm WeatherDisplay:10.37 W/m2 -SN
04:46 -0.7 °F /  -18.2 °C -1.5 °F /  -18.6 °C 995.1in /  33694.1hPa NNW 9.8mph /  15.8km/h 19.3mph /  31.1km/h 94% 0.0in /  0mm WeatherDisplay:10.37 W/m2 -SN
04:51 -0.7 °F /  -18.2 °C -1.5 °F /  -18.6 °C 995.1in /  33694.1hPa North 11.1mph /  17.9km/h 19.3mph /  31.1km/h 94% 0.0in /  0mm WeatherDisplay:10.37 W/m2 -SN
04:56 -0.7 °F /  -18.2 °C -1.6 °F /  -18.7 °C 995.5in /  33707.6hPa NW 9.5mph /  15.3km/h 19.3mph /  31.1km/h 94% 0.0in /  0mm WeatherDisplay:10.37 W/m2 -SN
05:01 -0.8 °F /  -18.2 °C -1.6 °F /  -18.7 °C 995.5in /  33707.6hPa NNW 3.9mph /  6.3km/h 16.7mph /  26.9km/h 94% 0.0in /  0mm WeatherDisplay:10.37 W/m2 -SN
05:06 -0.8 °F /  -18.2 °C -1.6 °F /  -18.7 °C 995.5in /  33707.6hPa North 7.6mph /  12.2km/h 14.8mph /  23.8km/h 94% 0.0in /  0mm WeatherDisplay:10.37 W/m2 -SN
05:11 -0.8 °F /  -18.2 °C -1.6 °F /  -18.7 °C 995.8in /  33717.8hPa North 10.3mph /  16.6km/h 18.5mph /  29.8km/h 94% 0.0in /  0mm WeatherDisplay:10.37 W/m2 -SN
05:16 -0.8 °F /  -18.2 °C -1.7 °F /  -18.7 °C 995.8in /  33717.8hPa NNW 15.9mph /  25.6km/h 24.1mph /  38.8km/h 94% 0.0in /  0mm WeatherDisplay:10.37 W/m2 -SN
05:21 -0.8 °F /  -18.2 °C -1.8 °F /  -18.8 °C 995.8in /  33717.8hPa WNW 4.5mph /  7.2km/h 16.1mph /  25.9km/h 93% 0.0in /  0mm WeatherDisplay:10.37 W/m2 -SN
05:26 -0.8 °F /  -18.2 °C -1.8 °F /  -18.8 °C 995.8in /  33717.8hPa WNW 7.6mph /  12.2km/h 12.9mph /  20.8km/h 93% 0.0in /  0mm WeatherDisplay:10.37 W/m2 -SN
05:31 -0.9 °F /  -18.3 °C -1.9 °F /  -18.8 °C 996.2in /  33731.3hPa West 3.5mph /  5.6km/h 16.1mph /  25.9km/h 93% 0.0in /  0mm WeatherDisplay:10.37 W/m2 -SN
05:36 -0.9 °F /  -18.3 °C -1.8 °F /  -18.8 °C 996.2in /  33731.3hPa NNW 10.8mph /  17.4km/h 19.3mph /  31.1km/h 94% 0.0in /  0mm WeatherDisplay:10.37 W/m2 -SN
05:41 -1.1 °F /  -18.4 °C -1.9 °F /  -18.8 °C 996.2in /  33731.3hPa NNW 8.4mph /  13.5km/h 18.5mph /  29.8km/h 94% 0.0in /  0mm WeatherDisplay:10.37 W/m2 -SN
05:47 -1.1 °F /  -18.4 °C -2.1 °F /  -18.9 °C 996.2in /  33731.3hPa NNW 8.4mph /  13.5km/h 18.5mph /  29.8km/h 93% 0.0in /  0mm WeatherDisplay:10.37 W/m2 -SN
05:52 -1.1 °F /  -18.4 °C -2.1 °F /  -18.9 °C 996.5in /  33741.5hPa NNW 16.9mph /  27.2km/h 22.2mph /  35.7km/h 93% 0.0in /  0mm WeatherDisplay:10.37 W/m2 -SN
05:57 -1.2 °F /  -18.4 °C -2.2 °F /  -19 °C 996.5in /  33741.5hPa NW 13.0mph /  20.9km/h 18.5mph /  29.8km/h 93% 0.0in /  0mm WeatherDisplay:10.37 W/m2 -SN
06:02 -1.2 °F /  -18.4 °C -2.2 °F /  -19 °C 996.5in /  33741.5hPa NNW 13.0mph /  20.9km/h 25.7mph /  41.4km/h 93% 0.0in /  0mm WeatherDisplay:10.37 W/m2 -SN
06:07 -1.2 °F /  -18.4 °C -2.2 °F /  -19 °C 996.5in /  33741.5hPa North 6.8mph /  10.9km/h 19.3mph /  31.1km/h 93% 0.0in /  0mm WeatherDisplay:10.37 W/m2 -SN
06:12 -1.2 °F /  -18.4 °C -2.2 °F /  -19 °C 996.8in /  33751.6hPa NW 5.0mph /  8km/h 13.0mph /  20.9km/h 93% 0.0in /  0mm WeatherDisplay:10.37 W/m2 -SN
06:17 -1.2 °F /  -18.4 °C -2.2 °F /  -19 °C 996.8in /  33751.6hPa NNW 3.2mph /  5.1km/h 7.4mph /  11.9km/h 93% 0.0in /  0mm WeatherDisplay:10.37 W/m2 -SN
06:22 -1.2 °F /  -18.4 °C -2.2 °F /  -19 °C 996.8in /  33751.6hPa NNW 5.1mph /  8.2km/h 11.1mph /  17.9km/h 93% 0.0in /  0mm WeatherDisplay:10.37 W/m2 -SN
06:27 -1.3 °F /  -18.5 °C -2.3 °F /  -19.1 °C 996.8in /  33751.6hPa WNW 5.0mph /  8km/h 14.8mph /  23.8km/h 93% 0.0in /  0mm WeatherDisplay:10.37 W/m2 -SN
06:32 -1.3 °F /  -18.5 °C -2.3 °F /  -19.1 °C 997.2in /  33765.2hPa North 11.7mph /  18.8km/h 16.1mph /  25.9km/h 93% 0.0in /  0mm WeatherDisplay:10.37 W/m2 -SN
06:37 -1.3 °F /  -18.5 °C -2.3 °F /  -19.1 °C 997.2in /  33765.2hPa NNW 9.5mph /  15.3km/h 20.9mph /  33.6km/h 93% 0.0in /  0mm WeatherDisplay:10.37 W/m2 -SN
06:42 -1.4 °F /  -18.6 °C -2.4 °F /  -19.1 °C 997.2in /  33765.2hPa NNW 10.5mph /  16.9km/h 18.5mph /  29.8km/h 93% 0.0in /  0mm WeatherDisplay:10.37 W/m2 BKN
06:47 -1.4 °F /  -18.6 °C -2.4 °F /  -19.1 °C 997.2in /  33765.2hPa NW 1.4mph /  2.3km/h 5.6mph /  9km/h 93% 0.0in /  0mm WeatherDisplay:10.37 W/m2 BKN
06:53 -1.4 °F /  -18.6 °C -2.4 °F /  -19.1 °C 997.2in /  33765.2hPa NNW 4.0mph /  6.4km/h 14.8mph /  23.8km/h 93% 0.0in /  0mm WeatherDisplay:10.37 W/m2 BKN
06:58 -1.6 °F /  -18.7 °C -2.6 °F /  -19.2 °C 997.5in /  33775.4hPa NNW 7.2mph /  11.6km/h 18.5mph /  29.8km/h 93% 0.0in /  0mm WeatherDisplay:10.37 W/m2 BKN
07:03 -1.6 °F /  -18.7 °C -2.6 °F /  -19.2 °C 997.5in /  33775.4hPa NNW 6.0mph /  9.7km/h 16.7mph /  26.9km/h 93% 0.0in /  0mm WeatherDisplay:10.37 W/m2 BKN
07:08 -1.6 °F /  -18.7 °C -2.6 °F /  -19.2 °C 997.9in /  33788.9hPa WNW 3.1mph /  5km/h 7.4mph /  11.9km/h 93% 0.0in /  0mm WeatherDisplay:10.37 W/m2 BKN
07:13 -1.7 °F /  -18.7 °C -2.7 °F /  -19.3 °C 997.9in /  33788.9hPa NNW 11.1mph /  17.9km/h 16.7mph /  26.9km/h 93% 0.0in /  0mm WeatherDisplay:10.37 W/m2 BKN
07:18 -1.7 °F /  -18.7 °C -2.8 °F /  -19.3 °C 997.9in /  33788.9hPa NNW 7.2mph /  11.6km/h 19.3mph /  31.1km/h 92% 0.0in /  0mm WeatherDisplay:10.37 W/m2 BKN
07:23 -1.7 °F /  -18.7 °C -2.8 °F /  -19.3 °C 997.9in /  33788.9hPa North 11.9mph /  19.2km/h 20.4mph /  32.8km/h 92% 0.0in /  0mm WeatherDisplay:10.37 W/m2 BKN
07:28 -1.8 °F /  -18.8 °C -2.8 °F /  -19.3 °C 998.2in /  33799.1hPa NNW 7.2mph /  11.6km/h 18.5mph /  29.8km/h 93% 0.0in /  0mm WeatherDisplay:10.37 W/m2 BKN
07:33 -1.8 °F /  -18.8 °C -2.8 °F /  -19.3 °C 998.2in /  33799.1hPa NNW 7.2mph /  11.6km/h 22.5mph /  36.2km/h 93% 0.0in /  0mm WeatherDisplay:10.37 W/m2 BKN
07:38 -1.8 °F /  -18.8 °C -2.9 °F /  -19.4 °C 998.2in /  33799.1hPa NNW 8.8mph /  14.2km/h 18.5mph /  29.8km/h 92% 0.0in /  0mm WeatherDisplay:10.37 W/m2 BKN
07:43 -1.8 °F /  -18.8 °C -2.9 °F /  -19.4 °C 998.5in /  33809.2hPa NNW 11.1mph /  17.9km/h 18.5mph /  29.8km/h 92% 0.0in /  0mm WeatherDisplay:10.37 W/m2 BKN
07:48 -1.8 °F /  -18.8 °C -2.9 °F /  -19.4 °C 998.5in /  33809.2hPa NNW 9.0mph /  14.5km/h 19.3mph /  31.1km/h 92% 0.0in /  0mm WeatherDisplay:10.37 W/m2 BKN
07:53 -1.8 °F /  -18.8 °C -2.9 °F /  -19.4 °C 998.5in /  33809.2hPa NNW 10.5mph /  16.9km/h 24.1mph /  38.8km/h 92% 0.0in /  0mm WeatherDisplay:10.37 W/m2 BKN
07:59 -1.8 °F /  -18.8 °C -2.9 °F /  -19.4 °C 998.5in /  33809.2hPa NNW 8.2mph /  13.2km/h 24.1mph /  38.8km/h 92% 0.0in /  0mm WeatherDisplay:10.37 W/m2 BKN
08:04 -1.8 °F /  -18.8 °C -2.9 °F /  -19.4 °C 998.9in /  33822.8hPa North 8.8mph /  14.2km/h 19.3mph /  31.1km/h 92% 0.0in /  0mm WeatherDisplay:10.37 W/m2 BKN
08:09 -1.8 °F /  -18.8 °C -2.9 °F /  -19.4 °C 998.9in /  33822.8hPa West 11.4mph /  18.3km/h 17.7mph /  28.5km/h 92% 0.0in /  0mm WeatherDisplay:10.37 W/m2 BKN
08:14 -1.8 °F /  -18.8 °C -2.9 °F /  -19.4 °C 998.9in /  33822.8hPa NNW 5.3mph /  8.5km/h 7.4mph /  11.9km/h 92% 0.0in /  0mm WeatherDisplay:10.37 W/m2 BKN
08:19 -1.8 °F /  -18.8 °C -2.9 °F /  -19.4 °C 998.9in /  33822.8hPa NNW 7.7mph /  12.4km/h 8.0mph /  12.9km/h 92% 0.0in /  0mm WeatherDisplay:10.37 W/m2 BKN
08:24 -1.8 °F /  -18.8 °C -2.9 °F /  -19.4 °C 999.2in /  33832.9hPa NNW 6.9mph /  11.1km/h 9.7mph /  15.6km/h 92% 0.0in /  0mm WeatherDisplay:10.37 W/m2 BKN
08:29 -1.9 °F /  -18.8 °C -3.0 °F /  -19.4 °C 999.2in /  33832.9hPa West 8.8mph /  14.2km/h 14.8mph /  23.8km/h 92% 0.0in /  0mm WeatherDisplay:10.37 W/m2 BKN
08:34 -1.9 °F /  -18.8 °C -3.0 °F /  -19.4 °C 999.2in /  33832.9hPa NW 10.6mph /  17.1km/h 25.7mph /  41.4km/h 92% 0.0in /  0mm WeatherDisplay:10.37 W/m2 BKN
08:39 -1.9 °F /  -18.8 °C -3.1 °F /  -19.5 °C 999.2in /  33832.9hPa NNW 11.9mph /  19.2km/h 18.5mph /  29.8km/h 92% 0.0in /  0mm WeatherDisplay:10.37 W/m2 BKN
08:44 -1.9 °F /  -18.8 °C -3.1 °F /  -19.5 °C 999.5in /  33843.1hPa NNW 10.3mph /  16.6km/h 18.5mph /  29.8km/h 92% 0.0in /  0mm WeatherDisplay:10.37 W/m2 BKN
08:49 -1.9 °F /  -18.8 °C -3.2 °F /  -19.6 °C 999.5in /  33843.1hPa NNW 8.2mph /  13.2km/h 18.5mph /  29.8km/h 91% 0.0in /  0mm WeatherDisplay:10.37 W/m2 BKN
08:54 -2.0 °F /  -18.9 °C -3.3 °F /  -19.6 °C 999.9in /  33856.6hPa North 7.6mph /  12.2km/h 18.5mph /  29.8km/h 91% 0.0in /  0mm WeatherDisplay:10.37 W/m2 BKN
08:59 -2.0 °F /  -18.9 °C -3.3 °F /  -19.6 °C 999.9in /  33856.6hPa NW 4.3mph /  6.9km/h 7.4mph /  11.9km/h 91% 0.0in /  0mm WeatherDisplay:10.37 W/m2 BKN
09:04 -2.0 °F /  -18.9 °C -3.3 °F /  -19.6 °C 999.9in /  33856.6hPa WNW 5.0mph /  8km/h 9.3mph /  15km/h 91% 0.0in /  0mm WeatherDisplay:10.37 W/m2 BKN
09:10 -2.1 °F /  -18.9 °C -3.3 °F /  -19.6 °C 999.9in /  33856.6hPa NNW 11.1mph /  17.9km/h 18.5mph /  29.8km/h 91% 0.0in /  0mm WeatherDisplay:10.37 W/m2 BKN
09:15 -2.0 °F /  -18.9 °C -3.3 °F /  -19.6 °C 1000.2in /  33866.8hPa NNW 7.2mph /  11.6km/h 13.0mph /  20.9km/h 91% 0.0in /  0mm WeatherDisplay:10.37 W/m2 BKN
09:20 -2.1 °F /  -18.9 °C -3.3 °F /  -19.6 °C 1000.2in /  33866.8hPa NNW 15.3mph /  24.6km/h 24.1mph /  38.8km/h 91% 0.0in /  0mm WeatherDisplay:10.37 W/m2 BKN
09:25 -2.0 °F /  -18.9 °C -3.3 °F /  -19.6 °C 1000.2in /  33866.8hPa WNW 12.1mph /  19.5km/h 18.5mph /  29.8km/h 91% 0.0in /  0mm WeatherDisplay:10.37 W/m2 BKN
09:30 -1.9 °F /  -18.8 °C -3.2 °F /  -19.6 °C 1000.6in /  33880.3hPa North 4.2mph /  6.8km/h 14.5mph /  23.3km/h 91% 0.0in /  0mm WeatherDisplay:10.37 W/m2 BKN
09:35 -2.0 °F /  -18.9 °C -3.4 °F /  -19.7 °C 1000.6in /  33880.3hPa WNW 3.9mph /  6.3km/h 11.3mph /  18.2km/h 90% 0.0in /  0mm WeatherDisplay:10.37 W/m2 BKN
09:40 -2.1 °F /  -18.9 °C -3.6 °F /  -19.8 °C 1000.6in /  33880.3hPa West 9.3mph /  15km/h 18.5mph /  29.8km/h 89% 0.0in /  0mm WeatherDisplay:10.37 W/m2 BKN
09:45 -2.1 °F /  -18.9 °C -3.7 °F /  -19.8 °C 1000.9in /  33890.5hPa NNW 13.2mph /  21.2km/h 20.4mph /  32.8km/h 89% 0.0in /  0mm WeatherDisplay:10.37 W/m2 BKN
09:50 -1.9 °F /  -18.8 °C -3.5 °F /  -19.7 °C 1000.9in /  33890.5hPa NNW 9.3mph /  15km/h 16.7mph /  26.9km/h 89% 0.0in /  0mm WeatherDisplay:10.37 W/m2 BKN
09:55 -1.7 °F /  -18.7 °C -3.3 °F /  -19.6 °C 1000.9in /  33890.5hPa NNW 6.9mph /  11.1km/h 14.8mph /  23.8km/h 89% 0.0in /  0mm WeatherDisplay:10.37 W/m2 BKN
10:00 -1.7 °F /  -18.7 °C -3.4 °F /  -19.7 °C 1001.2in /  33900.6hPa WNW 12.1mph /  19.5km/h 25.9mph /  41.7km/h 88% 0.0in /  0mm WeatherDisplay:10.37 W/m2 BKN
10:05 -1.9 °F /  -18.8 °C -3.8 °F /  -19.9 °C 1001.2in /  33900.6hPa NNW 7.7mph /  12.4km/h 14.5mph /  23.3km/h 87% 0.0in /  0mm WeatherDisplay:10.37 W/m2 BKN
10:10 -1.9 °F /  -18.8 °C -3.7 °F /  -19.8 °C 1001.2in /  33900.6hPa NW 5.1mph /  8.2km/h 13.0mph /  20.9km/h 88% 0.0in /  0mm WeatherDisplay:10.37 W/m2 BKN
10:16 -1.9 °F /  -18.8 °C -3.7 °F /  -19.8 °C 1001.2in /  33900.6hPa NNW 6.4mph /  10.3km/h 18.5mph /  29.8km/h 88% 0.0in /  0mm WeatherDisplay:10.37 W/m2 BKN
10:21 -1.9 °F /  -18.8 °C -3.7 °F /  -19.8 °C 1001.2in /  33900.6hPa NW 8.2mph /  13.2km/h 14.5mph /  23.3km/h 88% 0.0in /  0mm WeatherDisplay:10.37 W/m2 BKN
10:26 -1.9 °F /  -18.8 °C -3.5 °F /  -19.7 °C 1001.6in /  33914.2hPa WNW 7.1mph /  11.4km/h 22.5mph /  36.2km/h 89% 0.0in /  0mm WeatherDisplay:10.37 W/m2 BKN
10:31 -2.1 °F /  -18.9 °C -3.8 °F /  -19.9 °C 1001.6in /  33914.2hPa North 11.3mph /  18.2km/h 18.5mph /  29.8km/h 88% 0.0in /  0mm WeatherDisplay:10.37 W/m2 BKN
10:36 -2.2 °F /  -19 °C -3.9 °F /  -19.9 °C 1001.6in /  33914.2hPa WNW 6.6mph /  10.6km/h 11.3mph /  18.2km/h 88% 0.0in /  0mm WeatherDisplay:10.37 W/m2 BKN
10:41 -2.3 °F /  -19.1 °C -4.1 °F /  -20.1 °C 1001.9in /  33924.3hPa NNW 11.3mph /  18.2km/h 18.5mph /  29.8km/h 88% 0.0in /  0mm WeatherDisplay:10.37 W/m2 BKN
10:46 -2.4 °F /  -19.1 °C -4.0 °F /  -20 °C 1001.9in /  33924.3hPa North 7.6mph /  12.2km/h 14.8mph /  23.8km/h 89% 0.0in /  0mm WeatherDisplay:10.37 W/m2 BKN
10:51 -2.6 °F /  -19.2 °C -4.3 °F /  -20.2 °C 1001.9in /  33924.3hPa NNW 10.8mph /  17.4km/h 24.1mph /  38.8km/h 88% 0.0in /  0mm WeatherDisplay:10.37 W/m2 BKN
10:56 -2.7 °F /  -19.3 °C -4.4 °F /  -20.2 °C 1002.3in /  33937.9hPa NNW 7.6mph /  12.2km/h 20.4mph /  32.8km/h 88% 0.0in /  0mm WeatherDisplay:10.37 W/m2 BKN
11:01 -2.7 °F /  -19.3 °C -4.4 °F /  -20.2 °C 1002.3in /  33937.9hPa NW 7.7mph /  12.4km/h 16.7mph /  26.9km/h 88% 0.0in /  0mm WeatherDisplay:10.37 W/m2 BKN
11:06 -2.8 °F /  -19.3 °C -4.5 °F /  -20.3 °C 1002.3in /  33937.9hPa North 11.3mph /  18.2km/h 18.5mph /  29.8km/h 88% 0.0in /  0mm WeatherDisplay:10.37 W/m2 BKN
11:11 -2.8 °F /  -19.3 °C -4.6 °F /  -20.3 °C 1002.6in /  33948hPa North 8.8mph /  14.2km/h 18.5mph /  29.8km/h 88% 0.0in /  0mm WeatherDisplay:10.37 W/m2 BKN
11:16 -2.9 °F /  -19.4 °C -4.8 °F /  -20.4 °C 1002.6in /  33948hPa NNW 12.7mph /  20.4km/h 22.2mph /  35.7km/h 87% 0.0in /  0mm WeatherDisplay:10.37 W/m2 BKN
11:22 -3.0 °F /  -19.4 °C -4.7 °F /  -20.4 °C 1002.9in /  33958.2hPa NNW 6.9mph /  11.1km/h 13.0mph /  20.9km/h 88% 0.0in /  0mm WeatherDisplay:10.37 W/m2 BKN
11:27 -3.1 °F /  -19.5 °C -4.8 °F /  -20.4 °C 1002.9in /  33958.2hPa WNW 12.9mph /  20.8km/h 27.8mph /  44.7km/h 88% 0.0in /  0mm WeatherDisplay:10.37 W/m2 BKN
11:32 -3.1 °F /  -19.5 °C -4.8 °F /  -20.4 °C 1002.9in /  33958.2hPa NW 9.2mph /  14.8km/h 16.7mph /  26.9km/h 88% 0.0in /  0mm WeatherDisplay:10.37 W/m2 BKN
11:37 -3.0 °F /  -19.4 °C -4.8 °F /  -20.4 °C 1002.9in /  33958.2hPa North 11.6mph /  18.7km/h 16.1mph /  25.9km/h 87% 0.0in /  0mm WeatherDisplay:10.37 W/m2 BKN
11:42 -3.0 °F /  -19.4 °C -4.8 °F /  -20.4 °C 1003.3in /  33971.7hPa NNW 8.7mph /  14km/h 16.7mph /  26.9km/h 87% 0.0in /  0mm WeatherDisplay:10.37 W/m2 BKN
11:47 -3.1 °F /  -19.5 °C -4.9 °F /  -20.5 °C 1003.3in /  33971.7hPa NNE 7.1mph /  11.4km/h 20.4mph /  32.8km/h 87% 0.0in /  0mm WeatherDisplay:10.37 W/m2 BKN
11:52 -3.1 °F /  -19.5 °C -4.9 °F /  -20.5 °C 1003.3in /  33971.7hPa NNW 8.4mph /  13.5km/h 14.8mph /  23.8km/h 87% 0.0in /  0mm WeatherDisplay:10.37 W/m2 BKN
11:57 -3.1 °F /  -19.5 °C -4.9 °F /  -20.5 °C 1003.3in /  33971.7hPa WNW 9.5mph /  15.3km/h 14.8mph /  23.8km/h 87% 0.0in /  0mm WeatherDisplay:10.37 W/m2 BKN
12:02 -3.1 °F /  -19.5 °C -4.9 °F /  -20.5 °C 1003.6in /  33981.9hPa North 12.6mph /  20.3km/h 24.1mph /  38.8km/h 87% 0.0in /  0mm WeatherDisplay:10.37 W/m2 BKN
12:07 -3.2 °F /  -19.6 °C -5.0 °F /  -20.6 °C 1003.6in /  33981.9hPa NNW 11.3mph /  18.2km/h 20.4mph /  32.8km/h 87% 0.0in /  0mm WeatherDisplay:10.37 W/m2 BKN
12:12 -3.1 °F /  -19.5 °C -4.9 °F /  -20.5 °C 1003.6in /  33981.9hPa NW 4.7mph /  7.6km/h 18.5mph /  29.8km/h 87% 0.0in /  0mm WeatherDisplay:10.37 W/m2 BKN
12:18 -3.1 °F /  -19.5 °C -4.8 °F /  -20.4 °C 1003.9in /  33992.1hPa NNW 9.7mph /  15.6km/h 18.5mph /  29.8km/h 88% 0.0in /  0mm WeatherDisplay:10.37 W/m2 BKN
12:23 -3.0 °F /  -19.4 °C -4.8 °F /  -20.4 °C 1003.9in /  33992.1hPa NNW 6.4mph /  10.3km/h 13.0mph /  20.9km/h 87% 0.0in /  0mm WeatherDisplay:10.37 W/m2 BKN
12:28 -2.9 °F /  -19.4 °C -4.9 °F /  -20.5 °C 1003.9in /  33992.1hPa NW 5.8mph /  9.3km/h 7.4mph /  11.9km/h 86% 0.0in /  0mm WeatherDisplay:10.37 W/m2 BKN
12:33 -2.8 °F /  -19.3 °C -4.9 °F /  -20.5 °C 1003.9in /  33992.1hPa WNW 6.8mph /  10.9km/h 24.1mph /  38.8km/h 85% 0.0in /  0mm WeatherDisplay:10.37 W/m2 BKN
12:38 -2.7 °F /  -19.3 °C -5.1 °F /  -20.6 °C 1003.9in /  33992.1hPa West 9.0mph /  14.5km/h 14.8mph /  23.8km/h 84% 0.0in /  0mm WeatherDisplay:10.37 W/m2 BKN
12:43 -2.8 °F /  -19.3 °C -5.2 °F /  -20.7 °C 1003.9in /  33992.1hPa NNW 7.1mph /  11.4km/h 16.7mph /  26.9km/h 84% 0.0in /  0mm WeatherDisplay:10.37 W/m2 BKN
12:48 -2.8 °F /  -19.3 °C -5.0 °F /  -20.6 °C 1004.3in /  34005.6hPa West 5.0mph /  8km/h 12.9mph /  20.8km/h 85% 0.0in /  0mm WeatherDisplay:10.37 W/m2 BKN
12:53 -2.8 °F /  -19.3 °C -4.9 °F /  -20.5 °C 1004.3in /  34005.6hPa NNW 2.4mph /  3.9km/h 5.6mph /  9km/h 85% 0.0in /  0mm WeatherDisplay:10.37 W/m2 BKN
12:58 -2.8 °F /  -19.3 °C -5.1 °F /  -20.6 °C 1004.3in /  34005.6hPa NNW 10.8mph /  17.4km/h 17.7mph /  28.5km/h 84% 0.0in /  0mm WeatherDisplay:10.37 W/m2 BKN
13:03 -2.8 °F /  -19.3 °C -4.9 °F /  -20.5 °C 1004.3in /  34005.6hPa NNW 6.4mph /  10.3km/h 11.1mph /  17.9km/h 85% 0.0in /  0mm WeatherDisplay:10.37 W/m2 BKN
13:08 -2.8 °F /  -19.3 °C -5.1 °F /  -20.6 °C 1004.3in /  34005.6hPa North 6.4mph /  10.3km/h 11.1mph /  17.9km/h 84% 0.0in /  0mm WeatherDisplay:10.37 W/m2 BKN
13:14 -2.8 °F /  -19.3 °C -5.1 °F /  -20.6 °C 1004.6in /  34015.8hPa NW 13.8mph /  22.2km/h 20.9mph /  33.6km/h 84% 0.0in /  0mm WeatherDisplay:10.37 W/m2 BKN
13:19 -2.8 °F /  -19.3 °C -5.3 °F /  -20.7 °C 1004.6in /  34015.8hPa North 6.4mph /  10.3km/h 17.7mph /  28.5km/h 83% 0.0in /  0mm WeatherDisplay:10.37 W/m2 BKN
13:24 -2.8 °F /  -19.3 °C -5.5 °F /  -20.8 °C 1004.6in /  34015.8hPa North 9.2mph /  14.8km/h 14.8mph /  23.8km/h 82% 0.0in /  0mm WeatherDisplay:10.37 W/m2 BKN
13:29 -2.8 °F /  -19.3 °C -5.5 °F /  -20.8 °C 1004.6in /  34015.8hPa NW 9.8mph /  15.8km/h 24.1mph /  38.8km/h 82% 0.0in /  0mm WeatherDisplay:10.37 W/m2 BKN
13:34 -2.8 °F /  -19.3 °C -5.3 °F /  -20.7 °C 1004.6in /  34015.8hPa NW 9.0mph /  14.5km/h 24.1mph /  38.8km/h 83% 0.0in /  0mm WeatherDisplay:10.37 W/m2 BKN
13:39 -2.8 °F /  -19.3 °C -5.3 °F /  -20.7 °C 1005.0in /  34029.3hPa NNW 12.1mph /  19.5km/h 18.5mph /  29.8km/h 83% 0.0in /  0mm WeatherDisplay:10.37 W/m2 BKN
13:44 -2.7 °F /  -19.3 °C -5.3 °F /  -20.7 °C 1005.0in /  34029.3hPa WNW 6.8mph /  10.9km/h 18.5mph /  29.8km/h 82% 0.0in /  0mm WeatherDisplay:10.37 W/m2 BKN
13:49 -2.6 °F /  -19.2 °C -5.3 °F /  -20.7 °C 1005.0in /  34029.3hPa NNW 11.9mph /  19.2km/h 20.9mph /  33.6km/h 82% 0.0in /  0mm WeatherDisplay:10.37 W/m2 BKN
13:54 -2.7 °F /  -19.3 °C -5.4 °F /  -20.8 °C 1005.0in /  34029.3hPa NW 4.2mph /  6.8km/h 9.3mph /  15km/h 82% 0.0in /  0mm WeatherDisplay:10.37 W/m2 BKN
13:59 -2.7 °F /  -19.3 °C -5.3 °F /  -20.7 °C 1005.0in /  34029.3hPa WNW 6.1mph /  9.8km/h 9.3mph /  15km/h 82% 0.0in /  0mm WeatherDisplay:10.37 W/m2 BKN
14:04 -2.6 °F /  -19.2 °C -5.3 °F /  -20.7 °C 1005.3in /  34039.5hPa NNW 11.9mph /  19.2km/h 25.9mph /  41.7km/h 82% 0.0in /  0mm WeatherDisplay:10.37 W/m2 BKN
14:09 -2.6 °F /  -19.2 °C -5.1 °F /  -20.6 °C 1005.3in /  34039.5hPa WNW 6.9mph /  11.1km/h 14.8mph /  23.8km/h 83% 0.0in /  0mm WeatherDisplay:10.37 W/m2 BKN
14:14 -2.6 °F /  -19.2 °C -5.2 °F /  -20.7 °C 1005.3in /  34039.5hPa NW 9.2mph /  14.8km/h 18.5mph /  29.8km/h 82% 0.0in /  0mm WeatherDisplay:10.37 W/m2 BKN
14:20 -2.4 °F /  -19.1 °C -4.9 °F /  -20.5 °C 1005.3in /  34039.5hPa NNW 8.7mph /  14km/h 16.1mph /  25.9km/h 83% 0.0in /  0mm WeatherDisplay:10.37 W/m2 BKN
14:25 -2.4 °F /  -19.1 °C -5.1 °F /  -20.6 °C 1005.3in /  34039.5hPa Calm   3.7mph /  6km/h 82% 0.0in /  0mm WeatherDisplay:10.37 W/m2 BKN
14:30 -2.3 °F /  -19.1 °C -5.2 °F /  -20.7 °C 1005.3in /  34039.5hPa NNW 7.1mph /  11.4km/h 16.7mph /  26.9km/h 81% 0.0in /  0mm WeatherDisplay:10.37 W/m2 BKN
14:35 -2.3 °F /  -19.1 °C -4.9 °F /  -20.5 °C 1005.3in /  34039.5hPa NNW 7.9mph /  12.7km/h 19.3mph /  31.1km/h 82% 0.0in /  0mm WeatherDisplay:10.37 W/m2 BKN
14:40 -2.3 °F /  -19.1 °C -5.2 °F /  -20.7 °C 1005.3in /  34039.5hPa WNW 5.1mph /  8.2km/h 16.7mph /  26.9km/h 81% 0.0in /  0mm WeatherDisplay:10.37 W/m2 BKN
14:45 -2.2 °F /  -19 °C -5.1 °F /  -20.6 °C 1005.3in /  34039.5hPa NNW 13.4mph /  21.6km/h 22.2mph /  35.7km/h 81% 0.0in /  0mm WeatherDisplay:10.37 W/m2 BKN
14:50 -2.2 °F /  -19 °C -5.1 °F /  -20.6 °C 1005.6in /  34049.6hPa NNW 5.5mph /  8.9km/h 13.0mph /  20.9km/h 81% 0.0in /  0mm WeatherDisplay:10.37 W/m2 BKN
14:55 -2.2 °F /  -19 °C -5.0 °F /  -20.6 °C 1005.6in /  34049.6hPa NW 13.4mph /  21.6km/h 19.3mph /  31.1km/h 81% 0.0in /  0mm WeatherDisplay:10.37 W/m2 BKN
15:00 -2.2 °F /  -19 °C -5.0 °F /  -20.6 °C 1005.6in /  34049.6hPa NW 6.9mph /  11.1km/h 20.4mph /  32.8km/h 81% 0.0in /  0mm WeatherDisplay:10.37 W/m2 BKN
15:05 -2.2 °F /  -19 °C -5.1 °F /  -20.6 °C 1006.0in /  34063.2hPa NNW 8.5mph /  13.7km/h 16.1mph /  25.9km/h 81% 0.0in /  0mm WeatherDisplay:10.37 W/m2 BKN
15:11 -2.2 °F /  -19 °C -5.1 °F /  -20.6 °C 1006.0in /  34063.2hPa NW 9.7mph /  15.6km/h 20.4mph /  32.8km/h 81% 0.0in /  0mm WeatherDisplay:10.37 W/m2 BKN
15:16 -2.2 °F /  -19 °C -5.1 °F /  -20.6 °C 1006.0in /  34063.2hPa NNW 10.0mph /  16.1km/h 18.5mph /  29.8km/h 81% 0.0in /  0mm WeatherDisplay:10.37 W/m2 BKN
15:21 -2.2 °F /  -19 °C -4.8 °F /  -20.4 °C 1006.0in /  34063.2hPa WNW 5.5mph /  8.9km/h 14.5mph /  23.3km/h 82% 0.0in /  0mm WeatherDisplay:10.37 W/m2 BKN
15:26 -2.2 °F /  -19 °C -5.1 °F /  -20.6 °C 1006.3in /  34073.3hPa West 8.4mph /  13.5km/h 16.7mph /  26.9km/h 81% 0.0in /  0mm WeatherDisplay:10.37 W/m2 BKN
15:31 -2.2 °F /  -19 °C -5.1 °F /  -20.6 °C 1006.3in /  34073.3hPa NNW 7.6mph /  12.2km/h 16.7mph /  26.9km/h 81% 0.0in /  0mm WeatherDisplay:10.37 W/m2 BKN
15:36 -2.2 °F /  -19 °C -5.1 °F /  -20.6 °C 1006.3in /  34073.3hPa NW 9.5mph /  15.3km/h 18.5mph /  29.8km/h 81% 0.0in /  0mm WeatherDisplay:10.37 W/m2 BKN
15:41 -2.2 °F /  -19 °C -5.0 °F /  -20.6 °C 1006.3in /  34073.3hPa NNW 7.1mph /  11.4km/h 16.1mph /  25.9km/h 81% 0.0in /  0mm WeatherDisplay:10.37 W/m2 BKN
15:46 -2.2 °F /  -19 °C -4.8 °F /  -20.4 °C 1006.3in /  34073.3hPa NW 10.3mph /  16.6km/h 18.5mph /  29.8km/h 82% 0.0in /  0mm WeatherDisplay:10.37 W/m2 BKN
15:51 -2.2 °F /  -19 °C -4.9 °F /  -20.5 °C 1006.7in /  34086.9hPa West 4.2mph /  6.8km/h 8.0mph /  12.9km/h 82% 0.0in /  0mm WeatherDisplay:10.37 W/m2 BKN
15:56 -2.2 °F /  -19 °C -5.1 °F /  -20.6 °C 1006.7in /  34086.9hPa North 5.6mph /  9km/h 14.8mph /  23.8km/h 81% 0.0in /  0mm WeatherDisplay:10.37 W/m2 BKN
16:02 -2.2 °F /  -19 °C -5.1 °F /  -20.6 °C 1006.7in /  34086.9hPa North 17.5mph /  28.2km/h 22.2mph /  35.7km/h 81% 0.0in /  0mm WeatherDisplay:10.37 W/m2 BKN
16:07 -2.3 °F /  -19.1 °C -5.1 °F /  -20.6 °C 1006.7in /  34086.9hPa North 6.4mph /  10.3km/h 14.8mph /  23.8km/h 81% 0.0in /  0mm WeatherDisplay:10.37 W/m2 BKN
16:12 -2.4 °F /  -19.1 °C -5.2 °F /  -20.7 °C 1006.7in /  34086.9hPa NNW 5.8mph /  9.3km/h 13.0mph /  20.9km/h 81% 0.0in /  0mm WeatherDisplay:10.37 W/m2 BKN
16:17 -2.4 °F /  -19.1 °C -5.2 °F /  -20.7 °C 1006.7in /  34086.9hPa NNW 6.1mph /  9.8km/h 9.7mph /  15.6km/h 81% 0.0in /  0mm WeatherDisplay:10.37 W/m2 BKN
16:22 -2.3 °F /  -19.1 °C -5.0 °F /  -20.6 °C 1006.7in /  34086.9hPa NW 4.3mph /  6.9km/h 7.4mph /  11.9km/h 82% 0.0in /  0mm WeatherDisplay:10.37 W/m2 BKN
16:27 -2.3 °F /  -19.1 °C -5.0 °F /  -20.6 °C 1007.0in /  34097hPa NNW 7.1mph /  11.4km/h 14.8mph /  23.8km/h 82% 0.0in /  0mm WeatherDisplay:10.37 W/m2 BKN
16:32 -2.2 °F /  -19 °C -4.7 °F /  -20.4 °C 1007.0in /  34097hPa NW 7.6mph /  12.2km/h 18.5mph /  29.8km/h 83% 0.0in /  0mm WeatherDisplay:10.37 W/m2 BKN
16:37 -2.2 °F /  -19 °C -5.1 °F /  -20.6 °C 1007.0in /  34097hPa NNW 7.1mph /  11.4km/h 16.7mph /  26.9km/h 81% 0.0in /  0mm WeatherDisplay:10.37 W/m2 BKN
16:42 -2.3 °F /  -19.1 °C -5.1 °F /  -20.6 °C 1007.3in /  34107.2hPa NNW 10.9mph /  17.5km/h 17.7mph /  28.5km/h 81% 0.0in /  0mm WeatherDisplay:10.37 W/m2 BKN
16:47 -2.3 °F /  -19.1 °C -5.3 °F /  -20.7 °C 1007.3in /  34107.2hPa NNE 10.8mph /  17.4km/h 18.5mph /  29.8km/h 80% 0.0in /  0mm WeatherDisplay:10.37 W/m2 BKN
16:52 -2.3 °F /  -19.1 °C -5.2 °F /  -20.7 °C 1007.3in /  34107.2hPa NW 10.6mph /  17.1km/h 16.1mph /  25.9km/h 81% 0.0in /  0mm WeatherDisplay:10.37 W/m2 BKN
16:58 -2.4 °F /  -19.1 °C -5.4 °F /  -20.8 °C 1007.3in /  34107.2hPa NNW 9.2mph /  14.8km/h 18.5mph /  29.8km/h 80% 0.0in /  0mm WeatherDisplay:10.37 W/m2 BKN
17:03 -2.4 °F /  -19.1 °C -5.4 °F /  -20.8 °C 1007.7in /  34120.7hPa WNW 5.5mph /  8.9km/h 14.5mph /  23.3km/h 80% 0.0in /  0mm WeatherDisplay:10.37 W/m2 BKN
17:08 -2.5 °F /  -19.2 °C -5.5 °F /  -20.8 °C 1007.7in /  34120.7hPa WNW 6.9mph /  11.1km/h 16.7mph /  26.9km/h 80% 0.0in /  0mm WeatherDisplay:10.37 W/m2 BKN
17:13 -2.6 °F /  -19.2 °C -5.6 °F /  -20.9 °C 1007.7in /  34120.7hPa NNW 7.1mph /  11.4km/h 13.0mph /  20.9km/h 80% 0.0in /  0mm WeatherDisplay:10.37 W/m2 BKN
17:18 -2.7 °F /  -19.3 °C -6.0 °F /  -21.1 °C 1007.7in /  34120.7hPa NNW 4.8mph /  7.7km/h 8.0mph /  12.9km/h 78% 0.0in /  0mm WeatherDisplay:10.37 W/m2 BKN
17:23 -2.7 °F /  -19.3 °C -6.0 °F /  -21.1 °C 1007.7in /  34120.7hPa NW 6.4mph /  10.3km/h 11.1mph /  17.9km/h 78% 0.0in /  0mm WeatherDisplay:10.37 W/m2 BKN
17:28 -2.7 °F /  -19.3 °C -6.0 °F /  -21.1 °C 1008.0in /  34130.9hPa NNW 7.7mph /  12.4km/h 16.7mph /  26.9km/h 78% 0.0in /  0mm WeatherDisplay:10.37 W/m2 BKN
17:33 -2.7 °F /  -19.3 °C -5.8 °F /  -21 °C 1008.0in /  34130.9hPa NW 6.9mph /  11.1km/h 16.7mph /  26.9km/h 79% 0.0in /  0mm WeatherDisplay:10.37 W/m2 BKN
17:38 -2.8 °F /  -19.3 °C -5.7 °F /  -20.9 °C 1008.0in /  34130.9hPa NNW 2.9mph /  4.7km/h 7.4mph /  11.9km/h 80% 0.0in /  0mm WeatherDisplay:10.37 W/m2 BKN
17:44 -2.8 °F /  -19.3 °C -5.5 °F /  -20.8 °C 1008.0in /  34130.9hPa NNW 7.6mph /  12.2km/h 14.8mph /  23.8km/h 82% 0.0in /  0mm WeatherDisplay:10.37 W/m2 BKN
17:49 -2.9 °F /  -19.4 °C -5.4 °F /  -20.8 °C 1008.4in /  34144.4hPa NW 4.0mph /  6.4km/h 8.0mph /  12.9km/h 83% 0.0in /  0mm WeatherDisplay:10.37 W/m2 BKN
17:54 -2.9 °F /  -19.4 °C -5.4 °F /  -20.8 °C 1008.4in /  34144.4hPa NW 5.5mph /  8.9km/h 16.7mph /  26.9km/h 83% 0.0in /  0mm WeatherDisplay:10.37 W/m2 BKN
17:59 -3.0 °F /  -19.4 °C -5.5 °F /  -20.8 °C 1008.4in /  34144.4hPa WNW 4.2mph /  6.8km/h 8.0mph /  12.9km/h 83% 0.0in /  0mm WeatherDisplay:10.37 W/m2 BKN
18:04 -2.9 °F /  -19.4 °C -5.4 °F /  -20.8 °C 1008.4in /  34144.4hPa West 7.7mph /  12.4km/h 24.1mph /  38.8km/h 83% 0.0in /  0mm WeatherDisplay:10.37 W/m2 BKN
18:09 -3.0 °F /  -19.4 °C -5.7 °F /  -20.9 °C 1008.7in /  34154.6hPa NW 11.7mph /  18.8km/h 22.2mph /  35.7km/h 82% 0.0in /  0mm WeatherDisplay:10.37 W/m2 BKN
18:14 -3.0 °F /  -19.4 °C -5.7 °F /  -20.9 °C 1008.7in /  34154.6hPa North 5.6mph /  9km/h 13.0mph /  20.9km/h 82% 0.0in /  0mm WeatherDisplay:10.37 W/m2 BKN
18:19 -3.0 °F /  -19.4 °C -5.7 °F /  -20.9 °C 1009.0in /  34164.7hPa NW 3.1mph /  5km/h 11.3mph /  18.2km/h 82% 0.0in /  0mm WeatherDisplay:10.37 W/m2 BKN
18:24 -3.1 °F /  -19.5 °C -5.7 °F /  -20.9 °C 1009.0in /  34164.7hPa NNW 6.4mph /  10.3km/h 14.8mph /  23.8km/h 82% 0.0in /  0mm WeatherDisplay:10.37 W/m2 BKN
18:29 -3.1 °F /  -19.5 °C -5.7 °F /  -20.9 °C 1009.0in /  34164.7hPa NW 8.7mph /  14km/h 17.7mph /  28.5km/h 82% 0.0in /  0mm WeatherDisplay:10.37 W/m2 BKN
18:34 -3.2 °F /  -19.6 °C -5.7 °F /  -20.9 °C 1009.4in /  34178.3hPa NW 7.4mph /  11.9km/h 16.7mph /  26.9km/h 83% 0.0in /  0mm WeatherDisplay:10.37 W/m2 BKN
18:40 -3.2 °F /  -19.6 °C -5.7 °F /  -20.9 °C 1009.4in /  34178.3hPa WNW 7.1mph /  11.4km/h 22.2mph /  35.7km/h 83% 0.0in /  0mm WeatherDisplay:10.37 W/m2 BKN
18:45 -3.3 °F /  -19.6 °C -5.8 °F /  -21 °C 1009.7in /  34188.4hPa NNW 9.7mph /  15.6km/h 31.5mph /  50.7km/h 83% 0.0in /  0mm WeatherDisplay:10.37 W/m2 BKN
18:50 -3.4 °F /  -19.7 °C -5.9 °F /  -21.1 °C 1009.7in /  34188.4hPa WNW 6.6mph /  10.6km/h 13.0mph /  20.9km/h 83% 0.0in /  0mm WeatherDisplay:10.37 W/m2 BKN
18:55 -3.4 °F /  -19.7 °C -5.8 °F /  -21 °C 1009.7in /  34188.4hPa NNW 7.6mph /  12.2km/h 20.4mph /  32.8km/h 84% 0.0in /  0mm WeatherDisplay:10.37 W/m2 BKN
19:00 -3.5 °F /  -19.7 °C -5.7 °F /  -20.9 °C 1009.7in /  34188.4hPa NNW 5.6mph /  9km/h 8.0mph /  12.9km/h 85% 0.0in /  0mm WeatherDisplay:10.37 W/m2 BKN
19:05 -3.5 °F /  -19.7 °C -5.7 °F /  -20.9 °C 1010.0in /  34198.6hPa NNW 7.1mph /  11.4km/h 13.0mph /  20.9km/h 85% 0.0in /  0mm WeatherDisplay:10.37 W/m2 -SN
19:10 -3.6 °F /  -19.8 °C -5.9 °F /  -21.1 °C 1010.0in /  34198.6hPa North 9.2mph /  14.8km/h 17.7mph /  28.5km/h 84% 0.0in /  0mm WeatherDisplay:10.37 W/m2 -SN
19:15 -3.7 °F /  -19.8 °C -6.1 °F /  -21.2 °C 1010.0in /  34198.6hPa NW 12.1mph /  19.5km/h 29.0mph /  46.7km/h 83% 0.0in /  0mm WeatherDisplay:10.37 W/m2 -SN
19:20 -3.8 °F /  -19.9 °C -6.7 °F /  -21.5 °C 1010.4in /  34212.1hPa WNW 9.2mph /  14.8km/h 16.7mph /  26.9km/h 80% 0.0in /  0mm WeatherDisplay:10.37 W/m2 -SN
19:25 -3.8 °F /  -19.9 °C -6.8 °F /  -21.6 °C 1010.4in /  34212.1hPa NNW 10.3mph /  16.6km/h 18.5mph /  29.8km/h 80% 0.0in /  0mm WeatherDisplay:10.37 W/m2 -SN
19:30 -3.9 °F /  -19.9 °C -6.9 °F /  -21.6 °C 1010.4in /  34212.1hPa NNW 9.0mph /  14.5km/h 16.1mph /  25.9km/h 80% 0.0in /  0mm WeatherDisplay:10.37 W/m2 -SN
19:36 -4.0 °F /  -20 °C -6.9 °F /  -21.6 °C 1010.4in /  34212.1hPa NW 9.0mph /  14.5km/h 14.5mph /  23.3km/h 80% 0.0in /  0mm WeatherDisplay:10.37 W/m2 -SN
19:41 -4.1 °F /  -20.1 °C -7.2 °F /  -21.8 °C 1010.7in /  34222.3hPa NW 12.1mph /  19.5km/h 24.1mph /  38.8km/h 79% 0.0in /  0mm WeatherDisplay:10.37 W/m2 -SN
19:46 -4.2 °F /  -20.1 °C -7.6 °F /  -22 °C 1010.7in /  34222.3hPa NW 9.8mph /  15.8km/h 18.5mph /  29.8km/h 77% 0.0in /  0mm WeatherDisplay:10.37 W/m2 -SN
19:51 -4.2 °F /  -20.1 °C -7.5 °F /  -21.9 °C 1010.7in /  34222.3hPa NNW 8.0mph /  12.9km/h 12.9mph /  20.8km/h 78% 0.0in /  0mm WeatherDisplay:10.37 W/m2 -SN
19:56 -4.3 °F /  -20.2 °C -7.6 °F /  -22 °C 1011.1in /  34235.8hPa NNE 12.2mph /  19.6km/h 18.5mph /  29.8km/h 78% 0.0in /  0mm WeatherDisplay:10.37 W/m2 -SN
20:01 -4.3 °F /  -20.2 °C -7.4 °F /  -21.9 °C 1011.1in /  34235.8hPa NNW 12.7mph /  20.4km/h 25.9mph /  41.7km/h 79% 0.0in /  0mm WeatherDisplay:10.37 W/m2 -SN
20:06 -4.4 °F /  -20.2 °C -7.7 °F /  -22.1 °C 1011.1in /  34235.8hPa NW 10.9mph /  17.5km/h 18.5mph /  29.8km/h 78% 0.0in /  0mm WeatherDisplay:10.37 W/m2 -SN
20:11 -4.6 °F /  -20.3 °C -7.8 °F /  -22.1 °C 1011.1in /  34235.8hPa NNW 6.3mph /  10.1km/h 13.0mph /  20.9km/h 78% 0.0in /  0mm WeatherDisplay:10.37 W/m2 -SN
20:16 -4.7 °F /  -20.4 °C -7.8 °F /  -22.1 °C 1011.1in /  34235.8hPa NNW 5.3mph /  8.5km/h 12.9mph /  20.8km/h 79% 0.0in /  0mm WeatherDisplay:10.37 W/m2 -SN
20:21 -4.7 °F /  -20.4 °C -7.8 °F /  -22.1 °C 1011.1in /  34235.8hPa North 3.2mph /  5.1km/h 9.3mph /  15km/h 79% 0.0in /  0mm WeatherDisplay:10.37 W/m2 -SN
20:26 -4.8 °F /  -20.4 °C -7.7 °F /  -22.1 °C 1011.4in /  34246hPa NNW 5.1mph /  8.2km/h 18.5mph /  29.8km/h 80% 0.0in /  0mm WeatherDisplay:10.37 W/m2 -SN
20:31 -4.8 °F /  -20.4 °C -7.8 °F /  -22.1 °C 1011.1in /  34235.8hPa WNW 5.6mph /  9km/h 18.5mph /  29.8km/h 80% 0.0in /  0mm WeatherDisplay:10.37 W/m2 -SN
20:37 -4.9 °F /  -20.5 °C -7.8 °F /  -22.1 °C 1011.1in /  34235.8hPa NNW 10.3mph /  16.6km/h 17.7mph /  28.5km/h 80% 0.0in /  0mm WeatherDisplay:10.37 W/m2 -SN
20:42 -4.9 °F /  -20.5 °C -7.9 °F /  -22.2 °C 1011.4in /  34246hPa NNW 7.1mph /  11.4km/h 14.8mph /  23.8km/h 79% 0.0in /  0mm WeatherDisplay:10.37 W/m2 -SN
20:47 -4.9 °F /  -20.5 °C -7.9 °F /  -22.2 °C 1011.4in /  34246hPa NNW 14.0mph /  22.5km/h 19.3mph /  31.1km/h 80% 0.0in /  0mm WeatherDisplay:10.37 W/m2 -SN
20:52 -4.9 °F /  -20.5 °C -7.8 °F /  -22.1 °C 1011.4in /  34246hPa NW 7.9mph /  12.7km/h 14.8mph /  23.8km/h 80% 0.0in /  0mm WeatherDisplay:10.37 W/m2 -SN
20:57 -4.9 °F /  -20.5 °C -7.8 °F /  -22.1 °C 1011.4in /  34246hPa NNW 6.1mph /  9.8km/h 13.0mph /  20.9km/h 80% 0.0in /  0mm WeatherDisplay:10.37 W/m2 -SN
21:02 -4.9 °F /  -20.5 °C -7.7 °F /  -22.1 °C 1011.4in /  34246hPa NNW 13.4mph /  21.6km/h 29.0mph /  46.7km/h 81% 0.0in /  0mm WeatherDisplay:10.37 W/m2 SCT
21:07 -4.9 °F /  -20.5 °C -7.7 °F /  -22.1 °C 1011.7in /  34256.2hPa NNW 11.4mph /  18.3km/h 27.4mph /  44.1km/h 81% 0.0in /  0mm WeatherDisplay:10.37 W/m2 SCT
21:12 -5.0 °F /  -20.6 °C -7.9 °F /  -22.2 °C 1011.7in /  34256.2hPa West 10.0mph /  16.1km/h 18.5mph /  29.8km/h 80% 0.0in /  0mm WeatherDisplay:10.37 W/m2 SCT
21:17 -5.1 °F /  -20.6 °C -7.8 °F /  -22.1 °C 1012.1in /  34269.7hPa NNW 5.6mph /  9km/h 9.7mph /  15.6km/h 81% 0.0in /  0mm WeatherDisplay:10.37 W/m2 SCT
21:22 -5.2 °F /  -20.7 °C -7.9 °F /  -22.2 °C 1012.1in /  34269.7hPa West 8.2mph /  13.2km/h 20.4mph /  32.8km/h 81% 0.0in /  0mm WeatherDisplay:10.37 W/m2 SCT
21:27 -5.2 °F /  -20.7 °C -8.0 °F /  -22.2 °C 1012.1in /  34269.7hPa North 11.1mph /  17.9km/h 14.8mph /  23.8km/h 81% 0.0in /  0mm WeatherDisplay:10.37 W/m2 SCT
21:32 -5.3 °F /  -20.7 °C -8.1 °F /  -22.3 °C 1012.1in /  34269.7hPa NW 3.1mph /  5km/h 16.7mph /  26.9km/h 81% 0.0in /  0mm WeatherDisplay:10.37 W/m2 FEW
21:38 -5.3 °F /  -20.7 °C -7.9 °F /  -22.2 °C 1012.1in /  34269.7hPa NW 6.8mph /  10.9km/h 13.0mph /  20.9km/h 82% 0.0in /  0mm WeatherDisplay:10.37 W/m2 FEW
21:43 -5.4 °F /  -20.8 °C -8.1 °F /  -22.3 °C 1012.1in /  34269.7hPa NNW 5.6mph /  9km/h 14.5mph /  23.3km/h 82% 0.0in /  0mm WeatherDisplay:10.37 W/m2 FEW
21:48 -5.6 °F /  -20.9 °C -8.2 °F /  -22.3 °C 1012.4in /  34279.9hPa WNW 4.3mph /  6.9km/h 14.8mph /  23.8km/h 82% 0.0in /  0mm WeatherDisplay:10.37 W/m2 FEW
21:53 -5.7 °F /  -20.9 °C -8.1 °F /  -22.3 °C 1012.4in /  34279.9hPa NNW 3.7mph /  6km/h 9.7mph /  15.6km/h 83% 0.0in /  0mm WeatherDisplay:10.37 W/m2 FEW
21:58 -5.7 °F /  -20.9 °C -8.2 °F /  -22.3 °C 1012.4in /  34279.9hPa NNW 5.5mph /  8.9km/h 8.0mph /  12.9km/h 83% 0.0in /  0mm WeatherDisplay:10.37 W/m2 FEW
22:03 -5.8 °F /  -21 °C -8.3 °F /  -22.4 °C 1012.4in /  34279.9hPa NW 3.4mph /  5.5km/h 5.6mph /  9km/h 83% 0.0in /  0mm WeatherDisplay:10.37 W/m2 FEW
22:08 -5.9 °F /  -21.1 °C -8.2 °F /  -22.3 °C 1012.4in /  34279.9hPa NNW 6.4mph /  10.3km/h 16.1mph /  25.9km/h 84% 0.0in /  0mm WeatherDisplay:10.37 W/m2 FEW
22:13 -5.9 °F /  -21.1 °C -8.2 °F /  -22.3 °C 1012.8in /  34293.4hPa NNW 8.2mph /  13.2km/h 18.5mph /  29.8km/h 84% 0.0in /  0mm WeatherDisplay:10.37 W/m2 FEW
22:18 -6.0 °F /  -21.1 °C -8.3 °F /  -22.4 °C 1012.8in /  34293.4hPa NNW 7.9mph /  12.7km/h 14.8mph /  23.8km/h 84% 0.0in /  0mm WeatherDisplay:10.37 W/m2 FEW
22:23 -6.1 °F /  -21.2 °C -8.2 °F /  -22.3 °C 1012.8in /  34293.4hPa NNW 6.6mph /  10.6km/h 14.8mph /  23.8km/h 85% 0.0in /  0mm WeatherDisplay:10.37 W/m2 FEW
22:28 -6.2 °F /  -21.2 °C -8.3 °F /  -22.4 °C 1012.8in /  34293.4hPa NNW 6.3mph /  10.1km/h 13.0mph /  20.9km/h 85% 0.0in /  0mm WeatherDisplay:10.37 W/m2 FEW
22:33 -6.2 °F /  -21.2 °C -8.3 °F /  -22.4 °C 1012.8in /  34293.4hPa NW 6.6mph /  10.6km/h 14.8mph /  23.8km/h 85% 0.0in /  0mm WeatherDisplay:10.37 W/m2 FEW
22:39 -6.3 °F /  -21.3 °C -8.4 °F /  -22.4 °C 1012.8in /  34293.4hPa NW 3.7mph /  6km/h 12.9mph /  20.8km/h 85% 0.0in /  0mm WeatherDisplay:10.37 W/m2 FEW
22:44 -6.3 °F /  -21.3 °C -8.3 °F /  -22.4 °C 1012.8in /  34293.4hPa NW 13.2mph /  21.2km/h 20.4mph /  32.8km/h 86% 0.0in /  0mm WeatherDisplay:10.37 W/m2 FEW
22:49 -6.4 °F /  -21.3 °C -8.3 °F /  -22.4 °C 1012.8in /  34293.4hPa NNW 10.6mph /  17.1km/h 16.7mph /  26.9km/h 86% 0.0in /  0mm WeatherDisplay:10.37 W/m2 FEW
22:54 -6.4 °F /  -21.3 °C -8.4 °F /  -22.4 °C 1013.1in /  34303.6hPa NW 7.7mph /  12.4km/h 16.7mph /  26.9km/h 86% 0.0in /  0mm WeatherDisplay:10.37 W/m2 FEW
22:59 -6.4 °F /  -21.3 °C -8.4 °F /  -22.4 °C 1013.1in /  34303.6hPa NNW 3.7mph /  6km/h 7.4mph /  11.9km/h 86% 0.0in /  0mm WeatherDisplay:10.37 W/m2 FEW
23:04 -6.5 °F /  -21.4 °C -8.4 °F /  -22.4 °C 1013.1in /  34303.6hPa NNW 0.8mph /  1.3km/h 5.6mph /  9km/h 86% 0.0in /  0mm WeatherDisplay:10.37 W/m2 FEW
23:09 -6.6 °F /  -21.4 °C -8.5 °F /  -22.5 °C 1013.1in /  34303.6hPa NNW 10.8mph /  17.4km/h 14.5mph /  23.3km/h 86% 0.0in /  0mm WeatherDisplay:10.37 W/m2 FEW
23:14 -6.6 °F /  -21.4 °C -8.5 °F /  -22.5 °C 1013.1in /  34303.6hPa NNW 4.8mph /  7.7km/h 8.0mph /  12.9km/h 86% 0.0in /  0mm WeatherDisplay:10.37 W/m2 FEW
23:19 -6.7 °F /  -21.5 °C -8.4 °F /  -22.4 °C 1013.4in /  34313.7hPa NNW 4.5mph /  7.2km/h 13.0mph /  20.9km/h 87% 0.0in /  0mm WeatherDisplay:10.37 W/m2 FEW
23:24 -6.7 °F /  -21.5 °C -8.5 °F /  -22.5 °C 1013.4in /  34313.7hPa NNW 5.5mph /  8.9km/h 13.0mph /  20.9km/h 87% 0.0in /  0mm WeatherDisplay:10.37 W/m2 FEW
23:30 -6.8 °F /  -21.6 °C -8.6 °F /  -22.6 °C 1013.4in /  34313.7hPa NNW 1.8mph /  2.9km/h 8.0mph /  12.9km/h 87% 0.0in /  0mm WeatherDisplay:10.37 W/m2 FEW
23:35 -6.8 °F /  -21.6 °C -8.6 °F /  -22.6 °C 1013.4in /  34313.7hPa NNW 8.7mph /  14km/h 16.7mph /  26.9km/h 87% 0.0in /  0mm WeatherDisplay:10.37 W/m2 FEW
23:40 -6.9 °F /  -21.6 °C -8.7 °F /  -22.6 °C 1013.4in /  34313.7hPa NNW 6.3mph /  10.1km/h 9.7mph /  15.6km/h 87% 0.0in /  0mm WeatherDisplay:10.37 W/m2 FEW
23:45 -6.9 °F /  -21.6 °C -8.7 °F /  -22.6 °C 1013.4in /  34313.7hPa NNW 5.6mph /  9km/h 9.7mph /  15.6km/h 87% 0.0in /  0mm WeatherDisplay:10.37 W/m2 FEW
23:50 -7.1 °F /  -21.7 °C -8.8 °F /  -22.7 °C 1013.4in /  34313.7hPa NNW 4.8mph /  7.7km/h 18.5mph /  29.8km/h 87% 0.0in /  0mm WeatherDisplay:10.37 W/m2 FEW
23:55 -7.1 °F /  -21.7 °C -8.7 °F /  -22.6 °C 1013.4in /  34313.7hPa NNW 3.2mph /  5.1km/h 7.4mph /  11.9km/h 88% 0.0in /  0mm WeatherDisplay:10.37 W/m2 FEW
Tuulensuunkaari, Veikkola, Suomi
Compliments of Weather Underground - 2.5 mb